Flight Track Log - Related Links

Times and Time Zones

All times are in EDT time to prevent confusion due to time zone crossing. See the SWA3764 flight status page for this flight to view local times or setup timezone preferences in your user account.

Time Position Orientation Groundspeed Altitude Reporting Facility
EDT Latitude Longitude Course Direction KTS MPH feet Rate Location/Type
Wed 07:19:37 AM 41.7667 -87.7667 201° Southwest 130 150 2,300  Level Chicago TRACON
Wed 07:21:25 AM 41.6842 -87.8100 201° Southwest 185 213 4,400 1,694 Climbing Chicago Center
Wed 07:22:27 AM 41.6147 -87.8272 191° South 221 254 7,100 2,829 Climbing Chicago Center
Wed 07:23:28 AM 41.5422 -87.8447 190° South 257 296 10,200 2,852 Climbing Chicago Center
Wed 07:24:29 AM 41.4653 -87.8575 187° South 280 322 12,900 1,770 Climbing Chicago Center
Wed 07:25:30 AM 41.3786 -87.8525 178° South 305 351 13,800 927 Climbing Chicago Center
Wed 07:26:32 AM 41.2900 -87.8375 173° South 315 362 14,800 1,707 Climbing Chicago Center
Wed 07:27:33 AM 41.1972 -87.8222 173° South 328 377 17,300 2,311 Climbing Chicago Center
Wed 07:28:34 AM 41.0986 -87.8039 172° South 351 404 19,500 1,805 Climbing Chicago Center
Wed 07:29:36 AM 40.9972 -87.7636 163° South 377 434 21,000 1,805 Climbing Chicago Center
Wed 07:30:37 AM 40.8936 -87.7303 166° South 382 440 23,200 2,803 Climbing Chicago Center
Wed 07:31:38 AM 40.7589 -87.7142 175° South 404 465 26,700 3,220 Climbing Chicago Center
Wed 07:32:40 AM 40.6442 -87.6981 174° South 414 476 29,800 2,780 Climbing Chicago Center
Wed 07:33:41 AM 40.5317 -87.6825 174° South 410 472 32,400 1,561 Climbing Chicago Center
Wed 07:34:43 AM 40.4178 -87.6653 173° South 411 473 33,000 300 Climbing Chicago Center
Wed 07:35:41 AM 40.2933 -87.6494 174° South 414 476 33,000  Level Indianapolis Center
Wed 07:36:43 AM 40.1789 -87.6344 174° South 413 475 33,000  Level Indianapolis Center
Wed 07:37:44 AM 40.0658 -87.6172 173° South 408 470 33,000  Level Indianapolis Center
Wed 07:38:46 AM 39.9506 -87.6025 174° South 413 475 33,000  Level Indianapolis Center
Wed 07:39:47 AM 39.8375 -87.5858 174° South 410 472 33,000  Level Indianapolis Center
Wed 07:40:49 AM 39.7239 -87.5711 174° South 409 471 33,000  Level Indianapolis Center
Wed 07:41:50 AM 39.6103 -87.5553 174° South 410 472 33,000  Level Indianapolis Center
Wed 07:42:52 AM 39.4972 -87.5400 174° South 408 470 33,000  Level Indianapolis Center
Wed 07:43:53 AM 39.3828 -87.5244 174° South 410 472 33,000  Level Indianapolis Center
Wed 07:44:55 AM 39.2489 -87.5064 174° South 413 475 33,000  Level Indianapolis Center
Wed 07:45:56 AM 39.1347 -87.4897 174° South 411 473 33,000  Level Indianapolis Center
Wed 07:46:58 AM 39.0194 -87.4753 174° South 414 476 33,000  Level Indianapolis Center
Wed 07:47:59 AM 38.9044 -87.4594 174° South 413 475 33,000  Level Indianapolis Center
Wed 07:49:01 AM 38.7883 -87.4439 174° South 418 481 33,000  Level Indianapolis Center
Wed 07:50:02 AM 38.6728 -87.4292 174° South 417 480 33,000  Level Indianapolis Center
Wed 07:51:04 AM 38.5575 -87.4136 174° South 417 480 33,000  Level Indianapolis Center
Wed 07:52:05 AM 38.4436 -87.3981 174° South 414 476 33,000  Level Indianapolis Center
Wed 07:53:07 AM 38.3078 -87.3806 174° South 412 474 33,000  Level Indianapolis Center
Wed 07:54:09 AM 38.1939 -87.3667 175° South 415 478 33,000  Level Indianapolis Center
Wed 07:55:10 AM 38.0806 -87.3511 174° South 413 475 33,000  Level Indianapolis Center
Wed 07:56:12 AM 37.9669 -87.3361 174° South 412 474 33,000  Level Indianapolis Center
Wed 07:57:13 AM 37.8550 -87.3206 174° South 406 467 33,000 -1,220 Level Indianapolis Center
Wed 07:58:15 AM 37.7367 -87.3056 174° South 404 465 30,500 -2,341 Descending Indianapolis Center
Wed 07:59:16 AM 37.6247 -87.2919 174° South 401 461 28,200 -2,195 Descending Indianapolis Center
Wed 08:00:18 AM 37.5172 -87.2767 174° South 389 448 26,000 -2,260 Descending Indianapolis Center
Wed 08:00:33 AM 37.4811 -87.2731 175° South 391 450 25,300 -2,357 Descending Memphis Center
Wed 08:01:14 AM 37.4100 -87.2681 177° South 368 423 23,800 -2,100 Descending Memphis Center
Wed 08:01:33 AM 37.3786 -87.2589 167° South 386 444 23,200 -800 Descending Memphis Center
Wed 08:02:14 AM 37.3136 -87.2483 173° South 359 413 23,000 -200 Descending Memphis Center
Wed 08:02:33 AM 37.2800 -87.2342 161° South 373 429 23,000  Level Memphis Center
Wed 08:03:15 AM 37.2108 -87.2158 168° South 368 423 23,000 -500 Level Memphis Center
Wed 08:03:33 AM 37.1814 -87.2042 162° South 373 429 22,500 -1,800 Descending Memphis Center
Wed 08:04:15 AM 37.1103 -87.1886 170° South 360 414 21,200 -1,900 Descending Memphis Center
Wed 08:04:33 AM 37.0847 -87.1767 160° South 373 429 20,600 -1,846 Descending Memphis Center
Wed 08:05:33 AM 36.9925 -87.1492 167° South 373 429 18,800 -2,077 Descending Memphis Center
Wed 08:06:17 AM 36.9086 -87.1292 169° South 368 423 17,000 -2,000 Descending Memphis Center
Wed 08:06:33 AM 36.8939 -87.1219 159° South 373 429 16,800 -1,895 Descending Memphis Center
Wed 08:07:33 AM 36.8014 -87.0894 164° South 358 412 14,600 -2,050 Descending Memphis Center
Wed 08:08:33 AM 36.7186 -87.0386 154° Southeast 336 387 12,700 -1,650 Descending Memphis Center
Wed 08:09:33 AM 36.6464 -86.9847 149° Southeast 315 362 11,300 -1,400 Descending Memphis Center
Wed 08:10:33 AM 36.5844 -86.9278 144° Southeast 292 336 9,900 -1,600 Descending Memphis Center
Wed 08:11:33 AM 36.5178 -86.8633 142° Southeast 279 321 8,100 -1,800 Descending Memphis Center
Wed 08:12:33 AM 36.4581 -86.8067 143° Southeast 279 321 6,300 -1,600 Descending Memphis Center
Wed 08:13:33 AM 36.4000 -86.7500 142° Southeast 279 321 4,900 -900 Descending Memphis Center
Wed 08:14:33 AM 36.3464 -86.6983 142° Southeast 263 303 4,500 -550 Descending Memphis Center
Wed 08:15:33 AM 36.3014 -86.6592 145° Southeast 217 250 3,800 -700 Descending Memphis Center
Wed 08:16:33 AM 36.2669 -86.6244 141° Southeast 191 220 3,100 -650 Descending Memphis Center
Wed 08:17:33 AM 36.2294 -86.6186 173° South 154 177 2,500 -650 Descending Memphis Center
Wed 08:18:33 AM 36.1944 -86.6356 201° Southwest 141 162 1,800 -650 Descending Memphis Center
Wed 08:19:33 AM 36.1636 -86.6472 197° South 141 162 1,200 -600 Descending Memphis Center
Wed 08:20:33 AM 36.1306 -86.6617 199° South 136 157 600 3,900 Descending Memphis Center
Wed 08:21:33 AM 36.0914 -86.6764 197° South 136 157 9,000 8,400 Climbing Memphis Center
Wed 08:23:00 AM 36.1167 -86.6667 90° East  Level FlightAware Approximate
Wed 08:30:00 AM 36.1245 -86.6782 90° East  Level Estimated
Wed 08:31:00 AM 36.1245 -86.6782 90° East  Level Estimated
Wed 08:32:00 AM 36.1245 -86.6782 90° East  Level Estimated
Wed 08:33:00 AM 36.1245 -86.6782 90° East  Level Estimated
Wed 08:34:00 AM 36.1245 -86.6782 90° East  Level Estimated
Wed 08:35:00 AM 36.1245 -86.6782 90° East  Level Estimated
Wed 08:36:00 AM 36.1245 -86.6782 90° East  Level Estimated
Wed 08:37:00 AM 36.1245 -86.6782 90° East  Level Estimated
Wed 08:38:00 AM 36.1245 -86.6782 90° East  Level Estimated
Wed 08:39:00 AM 36.1245 -86.6782 90° East  Level Estimated
Wed 08:40:00 AM 36.1245 -86.6782 90° East  Level Estimated
Wed 08:41:00 AM 36.1245 -86.6782 90° East  Level Estimated

Login

Don't have an account? Register now (free) for customized features, flight alerts, and more!